createdAt,value
2019-04-04T00:01:40.970Z,80.11
2019-04-04T00:04:08.529Z,80.12
2019-04-04T00:06:35.929Z,80.01
2019-04-04T00:09:03.331Z,79.93
2019-04-04T00:11:30.745Z,79.68
2019-04-04T00:13:58.151Z,80.21
2019-04-04T00:16:25.555Z,80.07
2019-04-04T00:18:52.952Z,80.02
2019-04-04T00:21:20.363Z,80.24
2019-04-04T00:23:47.774Z,80.13
2019-04-04T00:26:15.180Z,79.95
2019-04-04T00:28:44.082Z,79.96
2019-04-04T00:31:10.145Z,79.76
2019-04-04T00:33:37.610Z,79.61
2019-04-04T00:36:05.067Z,79.88
2019-04-04T00:38:32.492Z,79.83
2019-04-04T00:40:59.907Z,79.66
2019-04-04T00:43:27.307Z,79.80
2019-04-04T00:45:54.719Z,80.09
2019-04-04T00:48:22.131Z,79.96
2019-04-04T00:50:49.527Z,80.46
2019-04-04T00:53:16.934Z,80.76
2019-04-04T00:55:45.060Z,81.23
2019-04-04T00:58:11.742Z,81.64
2019-04-04T01:00:39.244Z,81.53
2019-04-04T01:03:06.627Z,81.57
2019-04-04T01:05:34.033Z,81.58
2019-04-04T01:08:01.420Z,81.10
2019-04-04T01:10:28.820Z,80.99
2019-04-04T01:12:56.231Z,80.95
2019-04-04T01:15:23.617Z,81.10
2019-04-04T01:17:51.020Z,81.37
2019-04-04T01:20:20.330Z,81.41
2019-04-04T01:22:45.829Z,81.67
2019-04-04T01:25:13.212Z,81.67
2019-04-04T01:27:40.602Z,81.75
2019-04-04T01:30:08.009Z,81.61
2019-04-04T01:32:35.399Z,81.45
2019-04-04T01:35:02.802Z,81.27
2019-04-04T01:37:30.205Z,81.44
2019-04-04T01:39:57.605Z,81.26
2019-04-04T01:42:25.029Z,80.85
2019-04-04T01:44:52.419Z,80.65
2019-04-04T01:47:19.838Z,81.01
2019-04-04T01:49:47.231Z,80.49
2019-04-04T01:52:14.643Z,80.50
2019-04-04T01:54:42.052Z,80.46
2019-04-04T01:57:09.448Z,80.56
2019-04-04T01:59:36.864Z,81.00
2019-04-04T02:02:04.265Z,80.65
2019-04-04T02:04:31.696Z,81.04
2019-04-04T02:06:59.672Z,81.14
2019-04-04T02:09:26.494Z,81.51
2019-04-04T02:11:53.896Z,81.12
2019-04-04T02:14:21.383Z,80.95
2019-04-04T02:16:51.306Z,80.92
2019-04-04T02:19:16.149Z,81.24
2019-04-04T02:21:43.558Z,81.36
2019-04-04T02:24:10.958Z,81.34
2019-04-04T02:26:38.351Z,80.97
2019-04-04T02:29:05.834Z,81.16
2019-04-04T02:31:34.768Z,81.37
2019-04-04T02:34:05.291Z,80.97
2019-04-04T02:36:29.581Z,80.57
2019-04-04T02:39:01.653Z,80.84
2019-04-04T02:41:29.065Z,81.14
2019-04-04T02:43:59.379Z,80.73
2019-04-04T02:46:23.885Z,81.33
2019-04-04T02:48:53.602Z,81.33
2019-04-04T02:51:18.746Z,80.96
2019-04-04T02:53:46.135Z,80.72
2019-04-04T02:56:13.830Z,80.77
2019-04-04T02:58:41.236Z,80.55
2019-04-04T03:01:08.669Z,80.83
2019-04-04T03:03:36.205Z,80.60
2019-04-04T03:06:03.485Z,80.91
2019-04-04T03:08:30.892Z,80.92
2019-04-04T03:10:58.319Z,80.64
2019-04-04T03:13:25.719Z,80.29
2019-04-04T03:15:53.119Z,80.10
2019-04-04T03:18:20.550Z,80.04
2019-04-04T03:20:50.407Z,80.25
2019-04-04T03:23:15.416Z,80.80
2019-04-04T03:25:44.663Z,81.06
2019-04-04T03:28:10.210Z,81.05
2019-04-04T03:30:37.617Z,81.02
2019-04-04T03:33:05.022Z,80.76
2019-04-04T03:35:32.437Z,80.71
2019-04-04T03:37:59.839Z,80.41
2019-04-04T03:40:27.237Z,80.24
2019-04-04T03:42:54.631Z,80.38
2019-04-04T03:45:26.246Z,80.72
2019-04-04T03:47:49.472Z,80.52
2019-04-04T03:50:16.865Z,80.60
2019-04-04T03:52:44.661Z,80.89
2019-04-04T03:55:11.683Z,80.91
2019-04-04T03:57:39.110Z,80.96
2019-04-04T04:00:07.477Z,80.64
2019-04-04T04:02:33.970Z,80.26
2019-04-04T04:05:02.092Z,80.43
2019-04-04T04:07:28.807Z,80.34
2019-04-04T04:09:59.297Z,80.47
2019-04-04T04:12:23.617Z,80.71
2019-04-04T04:14:53.716Z,80.62
2019-04-04T04:17:18.417Z,80.62
2019-04-04T04:19:45.828Z,80.57
2019-04-04T04:22:17.921Z,80.77
2019-04-04T04:24:40.639Z,80.87
2019-04-04T04:27:08.037Z,80.63
2019-04-04T04:29:35.440Z,80.62
2019-04-04T04:32:02.925Z,80.35
2019-04-04T04:34:33.049Z,80.12
2019-04-04T04:36:57.769Z,80.44
2019-04-04T04:39:25.174Z,80.06
2019-04-04T04:41:54.249Z,80.15
2019-04-04T04:44:20.003Z,80.31
2019-04-04T04:46:49.754Z,80.31
2019-04-04T04:49:14.826Z,80.56
2019-04-04T04:51:44.165Z,80.54
2019-04-04T04:54:09.693Z,80.45
2019-04-04T04:56:37.146Z,80.20
2019-04-04T04:59:04.559Z,80.33
2019-04-04T05:01:31.973Z,80.72
2019-04-04T05:04:02.326Z,80.66
2019-04-04T05:06:26.848Z,80.51
2019-04-04T05:08:54.239Z,80.53
2019-04-04T05:11:22.285Z,80.83
2019-04-04T05:16:23.363Z,80.55
2019-04-04T05:18:50.777Z,80.80
2019-04-04T05:21:24.752Z,80.73
2019-04-04T05:23:46.986Z,80.57
2019-04-04T05:26:13.033Z,80.64
2019-04-04T05:28:42.110Z,81.43
2019-04-04T05:31:08.021Z,80.75
2019-04-04T05:33:35.435Z,80.31
2019-04-04T05:36:04.883Z,79.93
2019-04-04T05:38:30.300Z,80.46
2019-04-04T05:40:57.713Z,79.95
2019-04-04T05:43:25.130Z,79.29
2019-04-04T05:45:52.687Z,79.06
2019-04-04T05:48:20.078Z,79.23
2019-04-04T05:50:47.519Z,78.70
2019-04-04T05:53:14.897Z,78.44
2019-04-04T05:55:42.446Z,78.33
2019-04-04T05:58:09.769Z,77.87
2019-04-04T06:00:37.184Z,77.11
2019-04-04T06:03:04.669Z,76.90
2019-04-04T06:05:32.081Z,76.86
2019-04-04T06:07:59.577Z,76.62
2019-04-04T06:10:26.974Z,77.60
2019-04-04T06:12:56.138Z,78.52
2019-04-04T06:15:21.936Z,79.34
2019-04-04T06:17:49.544Z,79.54
2019-04-04T06:20:17.307Z,79.52
2019-04-04T06:22:44.699Z,79.05
2019-04-04T06:25:12.134Z,79.26
2019-04-04T06:27:40.285Z,79.42
2019-04-04T06:30:06.979Z,80.51
2019-04-04T06:32:34.445Z,80.45
2019-04-04T06:35:01.873Z,80.42
2019-04-04T06:37:29.288Z,80.40
2019-04-04T06:39:58.888Z,79.85
2019-04-04T06:42:24.114Z,79.92
2019-04-04T06:44:54.108Z,80.07
2019-04-04T06:47:18.956Z,79.87
2019-04-04T06:49:46.399Z,80.17
2019-04-04T06:52:13.796Z,80.17
2019-04-04T06:54:41.206Z,79.77
2019-04-04T06:57:08.595Z,80.14
2019-04-04T06:59:36.461Z,79.84
2019-04-04T07:02:05.230Z,79.53
2019-04-04T07:04:31.917Z,79.11
2019-04-04T07:06:59.091Z,79.50
2019-04-04T07:09:25.784Z,79.33
2019-04-04T07:11:53.194Z,79.66
2019-04-04T07:14:20.601Z,79.84
2019-04-04T07:16:48.040Z,79.48
2019-04-04T07:19:15.439Z,79.73
2019-04-04T07:21:42.860Z,79.42
2019-04-04T07:24:10.247Z,79.37
2019-04-04T07:26:37.896Z,79.28
2019-04-04T07:31:39.122Z,79.86
2019-04-04T07:34:06.540Z,79.96
2019-04-04T07:36:33.990Z,80.11
2019-04-04T07:39:01.427Z,79.20
2019-04-04T07:41:28.922Z,79.99
2019-04-04T07:43:58.608Z,80.00
2019-04-04T07:46:23.773Z,79.98
2019-04-04T07:48:51.527Z,79.18
2019-04-04T07:51:18.671Z,79.75
2019-04-04T07:53:46.081Z,79.78
2019-04-04T07:56:14.354Z,79.86
2019-04-04T07:58:40.901Z,79.87
2019-04-04T08:01:08.300Z,80.00
2019-04-04T08:03:35.724Z,79.70
2019-04-04T08:06:03.135Z,79.34
2019-04-04T08:08:30.522Z,79.02
2019-04-04T08:10:57.972Z,79.32
2019-04-04T08:13:25.380Z,79.52
2019-04-04T08:15:52.851Z,79.77
2019-04-04T08:18:20.643Z,79.35
2019-04-04T08:20:48.042Z,79.28
2019-04-04T08:23:15.451Z,79.14
2019-04-04T08:25:42.869Z,78.94
2019-04-04T08:28:10.290Z,78.66
2019-04-04T08:30:37.683Z,79.04
2019-04-04T08:33:05.094Z,79.43
2019-04-04T08:35:32.507Z,79.29
2019-04-04T08:37:59.919Z,79.39
2019-04-04T08:40:27.338Z,79.17
2019-04-04T08:42:54.762Z,79.32
2019-04-04T08:45:22.143Z,79.22
2019-04-04T08:47:49.865Z,79.43
2019-04-04T08:50:17.320Z,78.97
2019-04-04T08:52:44.716Z,78.97
2019-04-04T08:55:12.121Z,78.74
2019-04-04T08:57:39.593Z,78.35
2019-04-04T09:00:07.009Z,78.29
2019-04-04T09:02:34.403Z,77.89
2019-04-04T09:05:11.982Z,77.57
2019-04-04T09:07:29.222Z,77.36
2019-04-04T09:09:56.721Z,77.42
2019-04-04T09:12:24.827Z,76.80
2019-04-04T09:14:52.225Z,76.60
2019-04-04T09:17:19.630Z,76.04
2019-04-04T09:19:47.024Z,76.60
2019-04-04T09:22:15.622Z,76.32
2019-04-04T09:24:42.999Z,76.41
2019-04-04T09:27:10.416Z,76.18
2019-04-04T09:29:37.899Z,75.56
2019-04-04T09:32:05.284Z,74.66
2019-04-04T09:34:32.677Z,74.02
2019-04-04T09:37:00.082Z,73.34
2019-04-04T09:39:27.520Z,73.41
2019-04-04T09:41:54.915Z,73.49
2019-04-04T09:44:22.343Z,73.42
2019-04-04T09:46:49.347Z,74.00
2019-04-04T09:49:16.776Z,73.99
2019-04-04T09:51:43.722Z,73.36
2019-04-04T09:54:11.127Z,72.54
2019-04-04T09:56:38.535Z,72.81
2019-04-04T09:59:05.935Z,73.06
2019-04-04T10:01:33.357Z,73.91
2019-04-04T10:04:00.760Z,73.51
2019-04-04T10:06:27.722Z,72.85
2019-04-04T10:08:55.337Z,72.79
2019-04-04T10:11:23.255Z,71.24
2019-04-04T10:13:50.690Z,70.92
2019-04-04T10:16:18.108Z,71.68
2019-04-04T10:18:45.637Z,70.31
2019-04-04T10:21:13.060Z,70.73
2019-04-04T10:23:40.464Z,70.00
2019-04-04T10:26:07.950Z,69.03
2019-04-04T10:28:35.347Z,68.51
2019-04-04T10:31:02.762Z,68.54
2019-04-04T10:33:29.830Z,67.43
2019-04-04T10:35:56.769Z,67.63
2019-04-04T10:38:23.747Z,66.52
2019-04-04T10:40:50.737Z,66.95
2019-04-04T10:43:18.187Z,67.45
2019-04-04T10:45:45.643Z,65.85
2019-04-04T10:48:13.051Z,65.32
2019-04-04T10:50:40.008Z,65.91
2019-04-04T10:53:07.111Z,65.84
2019-04-04T10:55:34.039Z,65.39
2019-04-04T11:00:35.317Z,64.86
2019-04-04T11:03:02.302Z,64.82
2019-04-04T11:05:29.753Z,65.17
2019-04-04T11:07:57.003Z,65.19
2019-04-04T11:10:23.695Z,65.22
2019-04-04T11:12:51.180Z,64.39
2019-04-04T11:15:18.582Z,64.53
2019-04-04T11:17:45.982Z,64.85
2019-04-04T11:20:13.559Z,65.11
2019-04-04T11:22:40.941Z,65.11
2019-04-04T11:25:08.353Z,64.79
2019-04-04T11:27:35.744Z,65.65
2019-04-04T11:30:03.310Z,64.88
2019-04-04T11:32:30.711Z,64.44
2019-04-04T11:34:58.113Z,63.70
2019-04-04T11:37:26.501Z,64.00
2019-04-04T11:39:55.133Z,65.35
2019-04-04T11:42:21.331Z,65.18
2019-04-04T11:44:48.739Z,64.19
2019-04-04T11:47:16.140Z,63.11
2019-04-04T11:49:43.549Z,62.89
2019-04-04T11:52:10.939Z,63.15
2019-04-04T11:54:38.339Z,61.91
2019-04-04T11:57:05.747Z,60.49
2019-04-04T11:59:33.201Z,60.99
2019-04-04T12:02:00.639Z,59.84
2019-04-04T12:04:28.034Z,59.62
2019-04-04T12:06:55.438Z,58.29
2019-04-04T12:09:22.865Z,58.32
2019-04-04T12:11:50.429Z,58.30
2019-04-04T12:14:17.840Z,57.32
2019-04-04T12:16:45.240Z,56.27
2019-04-04T12:19:12.666Z,58.25
2019-04-04T12:21:40.110Z,55.45
2019-04-04T12:24:07.506Z,53.72
2019-04-04T12:26:34.937Z,54.54
2019-04-04T12:29:02.343Z,53.86
2019-04-04T12:31:29.824Z,53.95
2019-04-04T12:33:57.262Z,56.31
2019-04-04T12:36:25.174Z,55.70
2019-04-04T12:38:52.074Z,54.47
2019-04-04T12:41:19.476Z,53.15
2019-04-04T12:43:46.881Z,52.92
2019-04-04T12:46:14.284Z,54.32
2019-04-04T12:48:41.674Z,52.97
2019-04-04T12:51:09.101Z,53.16
2019-04-04T12:53:36.515Z,52.29
2019-04-04T12:56:04.598Z,52.19
2019-04-04T12:58:32.008Z,55.78
2019-04-04T13:00:59.503Z,54.22
2019-04-04T13:03:26.951Z,51.68
2019-04-04T13:05:54.406Z,53.29
2019-04-04T13:08:21.378Z,52.17
2019-04-04T13:10:48.812Z,49.51
2019-04-04T13:13:15.794Z,50.85
2019-04-04T13:15:42.722Z,48.10
2019-04-04T13:18:10.163Z,46.81
2019-04-04T13:20:37.614Z,46.62
2019-04-04T13:23:05.036Z,47.89
2019-04-04T13:25:31.999Z,49.76
2019-04-04T13:27:58.939Z,47.66
2019-04-04T13:30:26.388Z,48.55
2019-04-04T13:32:53.801Z,47.96
2019-04-04T13:35:20.767Z,50.80
2019-04-04T13:37:48.187Z,49.42
2019-04-04T13:40:15.612Z,49.88
2019-04-04T13:42:43.232Z,46.71
2019-04-04T13:45:10.642Z,46.29
2019-04-04T13:47:40.271Z,45.81
2019-04-04T13:50:06.056Z,45.65
2019-04-04T13:52:33.751Z,48.30
2019-04-04T13:55:01.149Z,47.78
2019-04-04T13:57:28.600Z,45.02
2019-04-04T13:59:56.065Z,44.26
2019-04-04T14:02:23.470Z,43.47
2019-04-04T14:04:51.004Z,44.64
2019-04-04T14:07:18.390Z,43.06
2019-04-04T14:09:45.804Z,40.91
2019-04-04T14:12:14.267Z,39.88
2019-04-04T14:14:40.607Z,39.72
2019-04-04T14:17:08.019Z,41.76
2019-04-04T14:19:35.419Z,43.16
2019-04-04T14:22:03.376Z,46.00
2019-04-04T14:24:30.772Z,47.13
2019-04-04T14:26:58.273Z,46.29
2019-04-04T14:29:27.782Z,48.56
2019-04-04T14:31:53.137Z,49.48
2019-04-04T14:34:20.552Z,50.54
2019-04-04T14:36:48.434Z,51.30
2019-04-04T14:39:15.852Z,52.28
2019-04-04T14:41:43.262Z,53.40
2019-04-04T14:44:10.675Z,53.46
2019-04-04T14:46:39.237Z,53.01
2019-04-04T14:49:05.522Z,53.43
2019-04-04T14:51:32.915Z,54.01
2019-04-04T14:54:00.323Z,54.18
2019-04-04T14:56:29.085Z,53.82
2019-04-04T14:58:55.147Z,53.96
2019-04-04T15:01:22.551Z,53.84
2019-04-04T15:03:50.028Z,53.35
2019-04-04T15:06:17.473Z,53.24
2019-04-04T15:08:44.899Z,52.85
2019-04-04T15:11:23.389Z,52.13
2019-04-04T15:13:39.711Z,52.06
2019-04-04T15:16:09.687Z,50.49
2019-04-04T15:18:36.409Z,48.81
2019-04-04T15:21:03.821Z,46.86
2019-04-04T15:23:31.231Z,46.85
2019-04-04T15:25:58.818Z,45.30
2019-04-04T15:28:26.285Z,44.15
2019-04-04T15:30:53.695Z,44.67
2019-04-04T15:33:21.102Z,46.10
2019-04-04T15:35:48.651Z,46.78
2019-04-04T15:38:16.053Z,47.81
2019-04-04T15:40:43.446Z,47.94
2019-04-04T15:43:10.867Z,47.69
2019-04-04T15:45:38.267Z,48.44
2019-04-04T15:48:05.725Z,48.46
2019-04-04T15:50:33.119Z,49.39
2019-04-04T15:53:00.567Z,49.40
2019-04-04T15:55:28.488Z,51.04
2019-04-04T15:57:55.891Z,52.09
2019-04-04T16:00:23.299Z,53.13
2019-04-04T16:02:50.720Z,52.20
2019-04-04T16:05:18.265Z,54.10
2019-04-04T16:07:45.662Z,52.41
2019-04-04T16:10:13.072Z,52.28
2019-04-04T16:12:40.472Z,54.13
2019-04-04T16:15:07.871Z,54.86
2019-04-04T16:17:35.390Z,52.79
2019-04-04T16:20:02.930Z,51.97
2019-04-04T16:22:30.432Z,51.97
2019-04-04T16:24:57.787Z,52.42
2019-04-04T16:27:25.170Z,52.68
2019-04-04T16:29:52.785Z,52.76
2019-04-04T16:32:20.189Z,52.54
2019-04-04T16:34:47.604Z,53.58
2019-04-04T16:37:15.580Z,54.05
2019-04-04T16:39:42.967Z,54.92
2019-04-04T16:42:10.550Z,56.37
2019-04-04T16:44:38.140Z,57.31
2019-04-04T16:47:05.750Z,58.66
2019-04-04T16:49:33.162Z,59.24
2019-04-04T16:52:00.562Z,59.69
2019-04-04T16:54:27.953Z,60.58
2019-04-04T16:56:55.351Z,61.52
2019-04-04T16:59:22.749Z,61.92
2019-04-04T17:01:50.326Z,62.17
2019-04-04T17:04:17.734Z,62.05
2019-04-04T17:06:45.145Z,62.26
2019-04-04T17:09:12.532Z,62.76
2019-04-04T17:11:40.002Z,63.73
2019-04-04T17:14:07.390Z,64.26
2019-04-04T17:16:34.811Z,64.75
2019-04-04T17:19:02.206Z,65.53
2019-04-04T17:21:29.603Z,65.67
2019-04-04T17:23:57.014Z,65.94
2019-04-04T17:26:24.451Z,66.64
2019-04-04T17:28:52.380Z,67.20
2019-04-04T17:31:19.457Z,67.86
2019-04-04T17:33:47.107Z,68.21
2019-04-04T17:36:14.396Z,68.47
2019-04-04T17:38:41.832Z,68.71
2019-04-04T17:41:09.239Z,68.96
2019-04-04T17:43:36.904Z,68.89
2019-04-04T17:46:04.491Z,69.03
2019-04-04T17:48:32.956Z,69.12
2019-04-04T17:50:59.711Z,69.40
2019-04-04T17:53:26.966Z,69.38
2019-04-04T17:55:55.437Z,69.75
2019-04-04T17:58:21.806Z,69.64
2019-04-04T18:00:48.893Z,69.87
2019-04-04T18:03:16.328Z,69.71
2019-04-04T18:05:43.740Z,69.88
2019-04-04T18:08:11.155Z,69.93
2019-04-04T18:10:38.563Z,70.09
2019-04-04T18:13:06.009Z,70.43
2019-04-04T18:15:33.417Z,70.35
2019-04-04T18:18:00.852Z,70.44
2019-04-04T18:20:28.265Z,70.27
2019-04-04T18:22:55.676Z,70.58
2019-04-04T18:25:23.076Z,70.63
2019-04-04T18:27:50.469Z,70.96
2019-04-04T18:30:17.990Z,70.95
2019-04-04T18:32:45.376Z,71.07
2019-04-04T18:35:12.928Z,71.27
2019-04-04T18:37:40.323Z,71.40
2019-04-04T18:40:07.673Z,71.65
2019-04-04T18:42:35.252Z,71.70
2019-04-04T18:45:02.769Z,71.98
2019-04-04T18:47:30.212Z,72.17
2019-04-04T18:49:57.629Z,72.41
2019-04-04T18:52:25.021Z,72.48
2019-04-04T18:54:52.436Z,72.52
2019-04-04T18:57:19.853Z,72.80
2019-04-04T18:59:47.290Z,72.95
2019-04-04T19:02:14.682Z,73.06
2019-04-04T19:04:42.195Z,73.01
2019-04-04T19:07:09.589Z,72.99
2019-04-04T19:09:37.008Z,72.87
2019-04-04T19:12:04.423Z,72.93
2019-04-04T19:14:31.854Z,73.02
2019-04-04T19:16:59.311Z,73.11
2019-04-04T19:19:26.723Z,73.06
2019-04-04T19:21:54.126Z,73.17
2019-04-04T19:24:21.551Z,73.42
2019-04-04T19:26:48.949Z,73.45
2019-04-04T19:29:16.578Z,73.37
2019-04-04T19:31:43.966Z,73.07
2019-04-04T19:34:11.351Z,73.15
2019-04-04T19:36:41.707Z,73.14
2019-04-04T19:39:06.284Z,72.98
2019-04-04T19:41:33.696Z,73.04
2019-04-04T19:44:01.111Z,73.10
2019-04-04T19:46:37.061Z,72.83
2019-04-04T19:48:55.952Z,72.77
2019-04-04T19:51:23.362Z,72.92
2019-04-04T19:53:50.777Z,72.81
2019-04-04T19:56:18.218Z,72.95
2019-04-04T19:58:45.653Z,73.12
2019-04-04T20:01:13.038Z,73.48
2019-04-04T20:03:40.479Z,73.90
2019-04-04T20:06:08.969Z,73.94
2019-04-04T20:08:36.355Z,74.01
2019-04-04T20:11:03.765Z,73.86
2019-04-04T20:13:31.538Z,73.60
2019-04-04T20:15:58.727Z,73.64
2019-04-04T20:18:26.124Z,73.54
2019-04-04T20:20:53.532Z,73.71
2019-04-04T20:23:20.947Z,73.87
2019-04-04T20:25:48.341Z,73.81
2019-04-04T20:28:15.809Z,73.88
2019-04-04T20:30:43.276Z,73.70
2019-04-04T20:33:10.642Z,73.32
2019-04-04T20:35:38.155Z,73.17
2019-04-04T20:38:05.595Z,73.05
2019-04-04T20:40:32.982Z,72.94
2019-04-04T20:43:00.404Z,73.24
2019-04-04T20:45:27.798Z,73.72
2019-04-04T20:47:55.207Z,74.25
2019-04-04T20:50:22.663Z,74.09
2019-04-04T20:52:50.223Z,74.20
2019-04-04T20:55:17.689Z,73.92
2019-04-04T20:57:45.151Z,74.01
2019-04-04T21:00:12.702Z,74.67
2019-04-04T21:02:40.107Z,74.50
2019-04-04T21:05:07.496Z,74.53
2019-04-04T21:07:34.906Z,74.31
2019-04-04T21:10:02.467Z,74.74
2019-04-04T21:12:29.979Z,74.54
2019-04-04T21:14:57.543Z,74.53
2019-04-04T21:17:24.950Z,74.62
2019-04-04T21:19:52.335Z,74.65
2019-04-04T21:22:27.402Z,74.98
2019-04-04T21:24:47.269Z,74.99
2019-04-04T21:27:14.826Z,75.06
2019-04-04T21:29:42.212Z,74.88
2019-04-04T21:32:09.609Z,75.04
2019-04-04T21:34:37.015Z,74.68
2019-04-04T21:37:04.499Z,74.62
2019-04-04T21:39:32.035Z,74.62
2019-04-04T21:41:59.431Z,74.46
2019-04-04T21:44:26.846Z,74.61
2019-04-04T21:46:54.252Z,74.78
2019-04-04T21:49:21.653Z,74.49
2019-04-04T21:51:49.070Z,74.81
2019-04-04T21:54:16.459Z,75.17
2019-04-04T21:56:43.885Z,74.94
2019-04-04T21:59:11.309Z,74.88
2019-04-04T22:01:38.724Z,75.07
2019-04-04T22:04:06.218Z,75.21
2019-04-04T22:06:33.634Z,75.13
2019-04-04T22:09:01.098Z,75.13
2019-04-04T22:11:28.534Z,75.19
2019-04-04T22:13:55.916Z,75.31
2019-04-04T22:16:23.363Z,75.48
2019-04-04T22:18:50.760Z,75.48
2019-04-04T22:21:18.179Z,75.12
2019-04-04T22:23:45.592Z,75.09
2019-04-04T22:26:13.187Z,74.83
2019-04-04T22:28:40.566Z,74.69
2019-04-04T22:31:08.870Z,74.57
2019-04-04T22:33:36.270Z,74.39
2019-04-04T22:36:03.687Z,74.51
2019-04-04T22:38:31.086Z,74.78
2019-04-04T22:40:58.539Z,74.68
2019-04-04T22:43:26.023Z,74.43
2019-04-04T22:45:53.464Z,74.30
2019-04-04T22:48:20.863Z,74.37
2019-04-04T22:50:48.257Z,74.11
2019-04-04T22:53:15.664Z,73.88
2019-04-04T22:55:43.062Z,73.87
2019-04-04T22:58:10.507Z,73.63
2019-04-04T23:00:37.916Z,73.41
2019-04-04T23:03:05.314Z,73.44
2019-04-04T23:05:32.731Z,73.69
2019-04-04T23:08:00.125Z,73.71
2019-04-04T23:10:27.530Z,73.93
2019-04-04T23:12:54.919Z,73.76
2019-04-04T23:15:22.322Z,74.14
2019-04-04T23:17:49.754Z,74.41
2019-04-04T23:20:17.445Z,74.20
2019-04-04T23:22:52.761Z,74.06
2019-04-04T23:25:12.244Z,74.07
2019-04-04T23:27:39.718Z,74.30
2019-04-04T23:30:07.644Z,74.56
2019-04-04T23:32:35.043Z,75.06
2019-04-04T23:35:02.457Z,75.40
2019-04-04T23:37:29.874Z,75.50
2019-04-04T23:39:57.505Z,75.67
2019-04-04T23:42:24.914Z,75.88
2019-04-04T23:45:00.754Z,76.04
2019-04-04T23:47:19.815Z,76.16
2019-04-04T23:49:47.220Z,76.17
2019-04-04T23:52:14.634Z,75.96
2019-04-04T23:54:42.042Z,75.89
2019-04-04T23:57:09.442Z,75.54
2019-04-04T23:59:36.848Z,74.83
